Seagoville's Hourly Summary for Tuesday, March 14, 2017
Hour Temp
(f)
RH
(%)
Solar Rad.
(MJ/m2)
Rainfall
(in)
Wind
(mph)
3/14/2017 12:00 AM 44 49 0 0 3.56
3/14/2017 1:00 AM 42 55 0 0 2.5
3/14/2017 2:00 AM 41 58 0 0 4.32
3/14/2017 3:00 AM 40 59 0 0 2.49
3/14/2017 4:00 AM 39 62 0 0 1.68
3/14/2017 5:00 AM 38 65 0 0 1.71
3/14/2017 6:00 AM 38 67 0 0 2.88
3/14/2017 7:00 AM 37 69 0.03 0 1.21
3/14/2017 8:00 AM 39 60 0.5 0 1.6
3/14/2017 9:00 AM 43 46 1.14 0 4.55
3/14/2017 10:00 AM 47 45 1.78 0 3.95
3/14/2017 11:00 AM 49 41 2.33 0 3
3/14/2017 12:00 PM 52 39 2.71 0 2.48
3/14/2017 1:00 PM 54 38 2.84 0 2.63
3/14/2017 2:00 PM 57 34 2.68 0 2.65
3/14/2017 3:00 PM 59 34 2.41 0 3.86
3/14/2017 4:00 PM 60 31 1.95 0 4.41
3/14/2017 5:00 PM 61 31 1.33 0 3.52
3/14/2017 6:00 PM 60 33 0.49 0 3.42
3/14/2017 7:00 PM 56 41 0.04 0 3.18
3/14/2017 8:00 PM 54 46 0 0 2.5
3/14/2017 9:00 PM 52 50 0 0 2.8
3/14/2017 10:00 PM 52 52 0 0 3.67
3/14/2017 11:00 PM 50 58 0 0 3.12
Data Summary 48 48 20.23 0.00 2.99